sensor_id;sensor_type;location;lat;lon;timestamp;pressure;altitude;pressure_sealevel;temperature
20058;BMP180;10189;49.546;7.906;2023-03-11T00:00:37;97151.00;;;4.30
20058;BMP180;10189;49.546;7.906;2023-03-11T00:03:06;97157.00;;;4.30
20058;BMP180;10189;49.546;7.906;2023-03-11T00:05:40;97152.00;;;4.30
20058;BMP180;10189;49.546;7.906;2023-03-11T00:08:11;97171.00;;;4.30
20058;BMP180;10189;49.546;7.906;2023-03-11T00:10:40;97160.00;;;4.20
20058;BMP180;10189;49.546;7.906;2023-03-11T00:13:10;97158.00;;;4.20
20058;BMP180;10189;49.546;7.906;2023-03-11T00:15:37;97181.00;;;4.20
20058;BMP180;10189;49.546;7.906;2023-03-11T00:18:04;97158.00;;;4.20
20058;BMP180;10189;49.546;7.906;2023-03-11T00:20:37;97172.00;;;4.20
20058;BMP180;10189;49.546;7.906;2023-03-11T00:23:05;97180.00;;;4.10
20058;BMP180;10189;49.546;7.906;2023-03-11T00:25:34;97187.00;;;4.20
20058;BMP180;10189;49.546;7.906;2023-03-11T00:28:02;97194.00;;;4.20
20058;BMP180;10189;49.546;7.906;2023-03-11T00:30:28;97186.00;;;4.10
20058;BMP180;10189;49.546;7.906;2023-03-11T00:32:56;97185.00;;;4.10
20058;BMP180;10189;49.546;7.906;2023-03-11T00:35:28;97181.00;;;4.00
20058;BMP180;10189;49.546;7.906;2023-03-11T00:37:58;97177.00;;;3.90
20058;BMP180;10189;49.546;7.906;2023-03-11T00:40:28;97183.00;;;3.80
20058;BMP180;10189;49.546;7.906;2023-03-11T00:42:54;97183.00;;;3.80
20058;BMP180;10189;49.546;7.906;2023-03-11T00:45:20;97192.00;;;3.80
20058;BMP180;10189;49.546;7.906;2023-03-11T00:47:46;97175.00;;;3.70
20058;BMP180;10189;49.546;7.906;2023-03-11T00:50:23;97208.00;;;3.70
20058;BMP180;10189;49.546;7.906;2023-03-11T00:52:50;97208.00;;;3.70
20058;BMP180;10189;49.546;7.906;2023-03-11T00:55:23;97188.00;;;3.60
20058;BMP180;10189;49.546;7.906;2023-03-11T00:57:59;97201.00;;;3.50
20058;BMP180;10189;49.546;7.906;2023-03-11T01:00:29;97211.00;;;3.50
20058;BMP180;10189;49.546;7.906;2023-03-11T01:02:56;97227.00;;;3.50
20058;BMP180;10189;49.546;7.906;2023-03-11T01:05:27;97209.00;;;3.50
20058;BMP180;10189;49.546;7.906;2023-03-11T01:07:54;97218.00;;;3.50
20058;BMP180;10189;49.546;7.906;2023-03-11T01:10:20;97217.00;;;3.50
20058;BMP180;10189;49.546;7.906;2023-03-11T01:12:47;97212.00;;;3.50
20058;BMP180;10189;49.546;7.906;2023-03-11T01:15:29;97194.00;;;3.50
20058;BMP180;10189;49.546;7.906;2023-03-11T01:17:55;97200.00;;;3.40
20058;BMP180;10189;49.546;7.906;2023-03-11T01:20:21;97199.00;;;3.40
20058;BMP180;10189;49.546;7.906;2023-03-11T01:22:47;97187.00;;;3.40
20058;BMP180;10189;49.546;7.906;2023-03-11T01:25:17;97173.00;;;3.40
20058;BMP180;10189;49.546;7.906;2023-03-11T01:27:43;97190.00;;;3.40
20058;BMP180;10189;49.546;7.906;2023-03-11T01:30:17;97193.00;;;3.30
20058;BMP180;10189;49.546;7.906;2023-03-11T01:32:44;97214.00;;;3.30
20058;BMP180;10189;49.546;7.906;2023-03-11T01:35:14;97211.00;;;3.20
20058;BMP180;10189;49.546;7.906;2023-03-11T01:37:40;97226.00;;;3.10
20058;BMP180;10189;49.546;7.906;2023-03-11T01:40:14;97241.00;;;3.00
20058;BMP180;10189;49.546;7.906;2023-03-11T01:42:41;97240.00;;;3.00
20058;BMP180;10189;49.546;7.906;2023-03-11T01:48:30;97269.00;;;3.00
20058;BMP180;10189;49.546;7.906;2023-03-11T01:50:56;97276.00;;;3.00
20058;BMP180;10189;49.546;7.906;2023-03-11T01:53:24;97279.00;;;3.10
20058;BMP180;10189;49.546;7.906;2023-03-11T01:55:50;97270.00;;;3.10
20058;BMP180;10189;49.546;7.906;2023-03-11T01:58:26;97259.00;;;3.10
20058;BMP180;10189;49.546;7.906;2023-03-11T02:00:55;97243.00;;;3.10
20058;BMP180;10189;49.546;7.906;2023-03-11T02:03:29;97249.00;;;3.10
20058;BMP180;10189;49.546;7.906;2023-03-11T02:06:00;97259.00;;;3.20
20058;BMP180;10189;49.546;7.906;2023-03-11T02:08:27;97248.00;;;3.10
20058;BMP180;10189;49.546;7.906;2023-03-11T02:10:56;97246.00;;;3.20
20058;BMP180;10189;49.546;7.906;2023-03-11T02:13:22;97242.00;;;3.10
20058;BMP180;10189;49.546;7.906;2023-03-11T02:15:49;97238.00;;;3.00
20058;BMP180;10189;49.546;7.906;2023-03-11T02:18:18;97236.00;;;3.00
20058;BMP180;10189;49.546;7.906;2023-03-11T02:24:44;97252.00;;;3.10
20058;BMP180;10189;49.546;7.906;2023-03-11T02:27:13;97252.00;;;3.20
20058;BMP180;10189;49.546;7.906;2023-03-11T02:29:43;97252.00;;;3.20
20058;BMP180;10189;49.546;7.906;2023-03-11T02:32:11;97243.00;;;3.20
20058;BMP180;10189;49.546;7.906;2023-03-11T02:34:42;97245.00;;;3.30
20058;BMP180;10189;49.546;7.906;2023-03-11T02:37:12;97237.00;;;3.30
20058;BMP180;10189;49.546;7.906;2023-03-11T02:39:47;97242.00;;;3.40
20058;BMP180;10189;49.546;7.906;2023-03-11T02:45:10;97244.00;;;3.30
20058;BMP180;10189;49.546;7.906;2023-03-11T02:47:38;97243.00;;;3.20
20058;BMP180;10189;49.546;7.906;2023-03-11T02:50:10;97237.00;;;3.10
20058;BMP180;10189;49.546;7.906;2023-03-11T02:52:37;97244.00;;;3.10
20058;BMP180;10189;49.546;7.906;2023-03-11T02:55:05;97248.00;;;3.10
20058;BMP180;10189;49.546;7.906;2023-03-11T02:57:33;97249.00;;;3.10
20058;BMP180;10189;49.546;7.906;2023-03-11T02:59:59;97249.00;;;3.10
20058;BMP180;10189;49.546;7.906;2023-03-11T03:02:31;97248.00;;;3.10
20058;BMP180;10189;49.546;7.906;2023-03-11T03:04:57;97268.00;;;3.10
20058;BMP180;10189;49.546;7.906;2023-03-11T03:07:23;97263.00;;;3.20
20058;BMP180;10189;49.546;7.906;2023-03-11T03:09:49;97262.00;;;3.30
20058;BMP180;10189;49.546;7.906;2023-03-11T03:12:15;97265.00;;;3.30
20058;BMP180;10189;49.546;7.906;2023-03-11T03:14:41;97271.00;;;3.30
20058;BMP180;10189;49.546;7.906;2023-03-11T03:17:08;97275.00;;;3.20
20058;BMP180;10189;49.546;7.906;2023-03-11T03:19:34;97278.00;;;3.20
20058;BMP180;10189;49.546;7.906;2023-03-11T03:22:00;97279.00;;;3.20
20058;BMP180;10189;49.546;7.906;2023-03-11T03:24:27;97282.00;;;3.10
20058;BMP180;10189;49.546;7.906;2023-03-11T03:26:52;97281.00;;;3.10
20058;BMP180;10189;49.546;7.906;2023-03-11T03:29:18;97277.00;;;3.00
20058;BMP180;10189;49.546;7.906;2023-03-11T03:31:47;97282.00;;;3.10
20058;BMP180;10189;49.546;7.906;2023-03-11T03:34:13;97288.00;;;3.10
20058;BMP180;10189;49.546;7.906;2023-03-11T03:36:39;97281.00;;;3.10
20058;BMP180;10189;49.546;7.906;2023-03-11T03:39:06;97288.00;;;3.10
20058;BMP180;10189;49.546;7.906;2023-03-11T03:41:35;97288.00;;;3.10
20058;BMP180;10189;49.546;7.906;2023-03-11T03:44:02;97281.00;;;3.30
20058;BMP180;10189;49.546;7.906;2023-03-11T03:46:29;97283.00;;;3.20
20058;BMP180;10189;49.546;7.906;2023-03-11T03:48:58;97300.00;;;3.20
20058;BMP180;10189;49.546;7.906;2023-03-11T03:51:25;97300.00;;;3.20
20058;BMP180;10189;49.546;7.906;2023-03-11T03:54:01;97310.00;;;3.20
20058;BMP180;10189;49.546;7.906;2023-03-11T03:56:27;97303.00;;;3.30
20058;BMP180;10189;49.546;7.906;2023-03-11T03:58:53;97313.00;;;3.30
20058;BMP180;10189;49.546;7.906;2023-03-11T04:01:20;97310.00;;;3.30
20058;BMP180;10189;49.546;7.906;2023-03-11T04:03:47;97323.00;;;3.30
20058;BMP180;10189;49.546;7.906;2023-03-11T04:06:18;97316.00;;;3.30
20058;BMP180;10189;49.546;7.906;2023-03-11T04:08:47;97319.00;;;3.30
20058;BMP180;10189;49.546;7.906;2023-03-11T04:11:15;97312.00;;;3.20
20058;BMP180;10189;49.546;7.906;2023-03-11T04:13:41;97326.00;;;3.20
20058;BMP180;10189;49.546;7.906;2023-03-11T04:16:17;97313.00;;;3.10
20058;BMP180;10189;49.546;7.906;2023-03-11T04:18:44;97305.00;;;3.10
20058;BMP180;10189;49.546;7.906;2023-03-11T04:21:10;97315.00;;;3.10
20058;BMP180;10189;49.546;7.906;2023-03-11T04:23:36;97318.00;;;3.00
20058;BMP180;10189;49.546;7.906;2023-03-11T04:26:03;97331.00;;;3.00
20058;BMP180;10189;49.546;7.906;2023-03-11T04:28:29;97312.00;;;3.00
20058;BMP180;10189;49.546;7.906;2023-03-11T04:30:55;97312.00;;;3.00
20058;BMP180;10189;49.546;7.906;2023-03-11T04:33:21;97319.00;;;3.00
20058;BMP180;10189;49.546;7.906;2023-03-11T04:35:48;97322.00;;;2.90
20058;BMP180;10189;49.546;7.906;2023-03-11T04:38:16;97307.00;;;2.90
20058;BMP180;10189;49.546;7.906;2023-03-11T04:40:42;97332.00;;;2.80
20058;BMP180;10189;49.546;7.906;2023-03-11T04:43:08;97342.00;;;2.70
20058;BMP180;10189;49.546;7.906;2023-03-11T04:45:38;97345.00;;;2.60
20058;BMP180;10189;49.546;7.906;2023-03-11T04:48:04;97350.00;;;2.50
20058;BMP180;10189;49.546;7.906;2023-03-11T04:50:31;97358.00;;;2.40
20058;BMP180;10189;49.546;7.906;2023-03-11T04:52:57;97367.00;;;2.30
20058;BMP180;10189;49.546;7.906;2023-03-11T04:55:25;97362.00;;;2.20
20058;BMP180;10189;49.546;7.906;2023-03-11T04:57:51;97363.00;;;2.10
20058;BMP180;10189;49.546;7.906;2023-03-11T05:00:17;97363.00;;;2.20
20058;BMP180;10189;49.546;7.906;2023-03-11T05:02:50;97363.00;;;2.10
20058;BMP180;10189;49.546;7.906;2023-03-11T05:05:17;97357.00;;;2.10
20058;BMP180;10189;49.546;7.906;2023-03-11T05:07:46;97357.00;;;2.10
20058;BMP180;10189;49.546;7.906;2023-03-11T05:10:13;97358.00;;;2.10
20058;BMP180;10189;49.546;7.906;2023-03-11T05:12:39;97368.00;;;2.20
20058;BMP180;10189;49.546;7.906;2023-03-11T05:15:06;97368.00;;;2.10
20058;BMP180;10189;49.546;7.906;2023-03-11T05:17:33;97370.00;;;2.00
20058;BMP180;10189;49.546;7.906;2023-03-11T05:19:59;97373.00;;;2.00
20058;BMP180;10189;49.546;7.906;2023-03-11T05:22:30;97371.00;;;1.90
20058;BMP180;10189;49.546;7.906;2023-03-11T05:24:57;97370.00;;;1.80
20058;BMP180;10189;49.546;7.906;2023-03-11T05:27:23;97388.00;;;1.70
20058;BMP180;10189;49.546;7.906;2023-03-11T05:29:53;97389.00;;;1.70
20058;BMP180;10189;49.546;7.906;2023-03-11T05:32:20;97388.00;;;1.70
20058;BMP180;10189;49.546;7.906;2023-03-11T05:34:48;97391.00;;;1.80
20058;BMP180;10189;49.546;7.906;2023-03-11T05:37:15;97397.00;;;1.70
20058;BMP180;10189;49.546;7.906;2023-03-11T05:39:42;97391.00;;;1.70
20058;BMP180;10189;49.546;7.906;2023-03-11T05:42:09;97386.00;;;1.70
20058;BMP180;10189;49.546;7.906;2023-03-11T05:44:35;97390.00;;;1.70
20058;BMP180;10189;49.546;7.906;2023-03-11T05:47:01;97402.00;;;1.60
20058;BMP180;10189;49.546;7.906;2023-03-11T05:49:28;97398.00;;;1.60
20058;BMP180;10189;49.546;7.906;2023-03-11T05:51:54;97380.00;;;1.60
20058;BMP180;10189;49.546;7.906;2023-03-11T05:54:22;97390.00;;;1.50
20058;BMP180;10189;49.546;7.906;2023-03-11T05:56:50;97389.00;;;1.50
20058;BMP180;10189;49.546;7.906;2023-03-11T05:59:17;97385.00;;;1.50
20058;BMP180;10189;49.546;7.906;2023-03-11T06:01:46;97394.00;;;1.40
20058;BMP180;10189;49.546;7.906;2023-03-11T06:04:12;97393.00;;;1.30
20058;BMP180;10189;49.546;7.906;2023-03-11T06:06:39;97410.00;;;1.40
20058;BMP180;10189;49.546;7.906;2023-03-11T06:09:11;97408.00;;;1.30
20058;BMP180;10189;49.546;7.906;2023-03-11T06:11:37;97424.00;;;1.30
20058;BMP180;10189;49.546;7.906;2023-03-11T06:14:03;97409.00;;;1.30
20058;BMP180;10189;49.546;7.906;2023-03-11T06:16:29;97420.00;;;1.30
20058;BMP180;10189;49.546;7.906;2023-03-11T06:18:58;97427.00;;;1.20
20058;BMP180;10189;49.546;7.906;2023-03-11T06:21:31;97428.00;;;1.30
20058;BMP180;10189;49.546;7.906;2023-03-11T06:23:57;97439.00;;;1.30
20058;BMP180;10189;49.546;7.906;2023-03-11T06:26:26;97436.00;;;1.30
20058;BMP180;10189;49.546;7.906;2023-03-11T06:28:52;97430.00;;;1.40
20058;BMP180;10189;49.546;7.906;2023-03-11T06:31:23;97448.00;;;1.40
20058;BMP180;10189;49.546;7.906;2023-03-11T06:33:50;97444.00;;;1.50
20058;BMP180;10189;49.546;7.906;2023-03-11T06:36:18;97436.00;;;1.60
20058;BMP180;10189;49.546;7.906;2023-03-11T06:38:45;97433.00;;;1.80
20058;BMP180;10189;49.546;7.906;2023-03-11T06:41:12;97440.00;;;2.00
20058;BMP180;10189;49.546;7.906;2023-03-11T06:43:38;97444.00;;;2.20
20058;BMP180;10189;49.546;7.906;2023-03-11T06:46:20;97447.00;;;2.40
20058;BMP180;10189;49.546;7.906;2023-03-11T06:48:48;97441.00;;;2.50
20058;BMP180;10189;49.546;7.906;2023-03-11T06:51:19;97447.00;;;2.60
20058;BMP180;10189;49.546;7.906;2023-03-11T06:53:52;97452.00;;;2.80
20058;BMP180;10189;49.546;7.906;2023-03-11T06:56:21;97445.00;;;2.90
20058;BMP180;10189;49.546;7.906;2023-03-11T06:58:53;97452.00;;;3.10
20058;BMP180;10189;49.546;7.906;2023-03-11T07:01:24;97460.00;;;3.10
20058;BMP180;10189;49.546;7.906;2023-03-11T07:03:51;97446.00;;;3.30
20058;BMP180;10189;49.546;7.906;2023-03-11T07:06:23;97442.00;;;3.50
20058;BMP180;10189;49.546;7.906;2023-03-11T07:08:52;97446.00;;;3.60
20058;BMP180;10189;49.546;7.906;2023-03-11T07:11:25;97449.00;;;3.70
20058;BMP180;10189;49.546;7.906;2023-03-11T07:13:55;97444.00;;;3.80
20058;BMP180;10189;49.546;7.906;2023-03-11T07:16:28;97439.00;;;3.90
20058;BMP180;10189;49.546;7.906;2023-03-11T07:19:00;97455.00;;;3.90
20058;BMP180;10189;49.546;7.906;2023-03-11T07:21:29;97453.00;;;3.90
20058;BMP180;10189;49.546;7.906;2023-03-11T07:24:00;97459.00;;;4.00
20058;BMP180;10189;49.546;7.906;2023-03-11T07:26:28;97461.00;;;4.20
20058;BMP180;10189;49.546;7.906;2023-03-11T07:28:55;97453.00;;;4.30
20058;BMP180;10189;49.546;7.906;2023-03-11T07:31:31;97459.00;;;4.30
20058;BMP180;10189;49.546;7.906;2023-03-11T07:34:00;97459.00;;;4.20
20058;BMP180;10189;49.546;7.906;2023-03-11T07:36:28;97459.00;;;4.30
20058;BMP180;10189;49.546;7.906;2023-03-11T07:39:03;97473.00;;;4.30
20058;BMP180;10189;49.546;7.906;2023-03-11T07:41:34;97469.00;;;4.30
20058;BMP180;10189;49.546;7.906;2023-03-11T07:44:02;97478.00;;;4.40
20058;BMP180;10189;49.546;7.906;2023-03-11T07:46:29;97484.00;;;4.40
20058;BMP180;10189;49.546;7.906;2023-03-11T07:48:55;97488.00;;;4.40
20058;BMP180;10189;49.546;7.906;2023-03-11T07:51:29;97490.00;;;4.40
20058;BMP180;10189;49.546;7.906;2023-03-11T07:53:57;97503.00;;;4.30
20058;BMP180;10189;49.546;7.906;2023-03-11T07:56:26;97514.00;;;4.20
20058;BMP180;10189;49.546;7.906;2023-03-11T07:58:53;97502.00;;;4.20
20058;BMP180;10189;49.546;7.906;2023-03-11T08:01:22;97511.00;;;4.50
20058;BMP180;10189;49.546;7.906;2023-03-11T08:03:50;97516.00;;;4.70
20058;BMP180;10189;49.546;7.906;2023-03-11T08:06:25;97522.00;;;4.50
20058;BMP180;10189;49.546;7.906;2023-03-11T08:08:51;97528.00;;;4.40
20058;BMP180;10189;49.546;7.906;2023-03-11T08:11:18;97522.00;;;4.50
20058;BMP180;10189;49.546;7.906;2023-03-11T08:13:46;97532.00;;;4.80
20058;BMP180;10189;49.546;7.906;2023-03-11T08:16:15;97523.00;;;4.90
20058;BMP180;10189;49.546;7.906;2023-03-11T08:18:42;97523.00;;;5.20
20058;BMP180;10189;49.546;7.906;2023-03-11T08:21:14;97524.00;;;5.40
20058;BMP180;10189;49.546;7.906;2023-03-11T08:23:41;97511.00;;;5.50
20058;BMP180;10189;49.546;7.906;2023-03-11T08:26:12;97520.00;;;5.40
20058;BMP180;10189;49.546;7.906;2023-03-11T08:28:38;97521.00;;;5.50
20058;BMP180;10189;49.546;7.906;2023-03-11T08:31:21;97514.00;;;5.50
20058;BMP180;10189;49.546;7.906;2023-03-11T08:33:50;97505.00;;;5.50
20058;BMP180;10189;49.546;7.906;2023-03-11T08:36:18;97521.00;;;5.60
20058;BMP180;10189;49.546;7.906;2023-03-11T08:38:44;97517.00;;;5.60
20058;BMP180;10189;49.546;7.906;2023-03-11T08:41:10;97528.00;;;5.80
20058;BMP180;10189;49.546;7.906;2023-03-11T08:43:36;97525.00;;;5.80
20058;BMP180;10189;49.546;7.906;2023-03-11T08:46:04;97530.00;;;5.90
20058;BMP180;10189;49.546;7.906;2023-03-11T08:48:35;97530.00;;;6.20
20058;BMP180;10189;49.546;7.906;2023-03-11T08:51:08;97519.00;;;6.00
20058;BMP180;10189;49.546;7.906;2023-03-11T08:53:34;97515.00;;;6.10
20058;BMP180;10189;49.546;7.906;2023-03-11T08:56:02;97517.00;;;6.50
20058;BMP180;10189;49.546;7.906;2023-03-11T08:58:28;97519.00;;;6.50
20058;BMP180;10189;49.546;7.906;2023-03-11T09:00:55;97516.00;;;6.40
20058;BMP180;10189;49.546;7.906;2023-03-11T09:03:22;97517.00;;;6.50
20058;BMP180;10189;49.546;7.906;2023-03-11T09:05:54;97513.00;;;6.40
20058;BMP180;10189;49.546;7.906;2023-03-11T09:08:20;97511.00;;;6.20
20058;BMP180;10189;49.546;7.906;2023-03-11T09:10:46;97523.00;;;6.20
20058;BMP180;10189;49.546;7.906;2023-03-11T09:13:12;97524.00;;;6.40
20058;BMP180;10189;49.546;7.906;2023-03-11T09:15:38;97509.00;;;6.80
20058;BMP180;10189;49.546;7.906;2023-03-11T09:18:04;97504.00;;;7.30
20058;BMP180;10189;49.546;7.906;2023-03-11T09:20:30;97495.00;;;7.30
20058;BMP180;10189;49.546;7.906;2023-03-11T09:22:56;97492.00;;;7.60
20058;BMP180;10189;49.546;7.906;2023-03-11T09:25:22;97491.00;;;7.80
20058;BMP180;10189;49.546;7.906;2023-03-11T09:27:48;97487.00;;;7.50
20058;BMP180;10189;49.546;7.906;2023-03-11T09:30:14;97498.00;;;6.80
20058;BMP180;10189;49.546;7.906;2023-03-11T09:32:40;97498.00;;;6.50
20058;BMP180;10189;49.546;7.906;2023-03-11T09:35:06;97510.00;;;6.20
20058;BMP180;10189;49.546;7.906;2023-03-11T09:37:32;97519.00;;;6.30
20058;BMP180;10189;49.546;7.906;2023-03-11T09:39:57;97512.00;;;6.50
20058;BMP180;10189;49.546;7.906;2023-03-11T09:45:28;97497.00;;;6.90
20058;BMP180;10189;49.546;7.906;2023-03-11T09:48:35;97509.00;;;6.80
20058;BMP180;10189;49.546;7.906;2023-03-11T09:51:27;97511.00;;;7.10
20058;BMP180;10189;49.546;7.906;2023-03-11T09:54:03;97505.00;;;7.30
20058;BMP180;10189;49.546;7.906;2023-03-11T09:56:33;97497.00;;;7.40
20058;BMP180;10189;49.546;7.906;2023-03-11T09:59:17;97499.00;;;7.70
20058;BMP180;10189;49.546;7.906;2023-03-11T10:01:50;97495.00;;;7.70
20058;BMP180;10189;49.546;7.906;2023-03-11T10:04:24;97494.00;;;8.20
20058;BMP180;10189;49.546;7.906;2023-03-11T10:06:55;97505.00;;;8.00
20058;BMP180;10189;49.546;7.906;2023-03-11T10:09:51;97511.00;;;8.10
20058;BMP180;10189;49.546;7.906;2023-03-11T10:12:51;97516.00;;;7.30
20058;BMP180;10189;49.546;7.906;2023-03-11T10:15:54;97504.00;;;7.40
20058;BMP180;10189;49.546;7.906;2023-03-11T10:18:43;97517.00;;;7.30
20058;BMP180;10189;49.546;7.906;2023-03-11T10:27:40;97543.00;;;6.70
20058;BMP180;10189;49.546;7.906;2023-03-11T10:30:36;97553.00;;;6.80
20058;BMP180;10189;49.546;7.906;2023-03-11T10:33:25;97547.00;;;6.90
20058;BMP180;10189;49.546;7.906;2023-03-11T10:35:57;97537.00;;;6.80
20058;BMP180;10189;49.546;7.906;2023-03-11T10:38:41;97540.00;;;7.20
20058;BMP180;10189;49.546;7.906;2023-03-11T10:41:27;97536.00;;;7.80
20058;BMP180;10189;49.546;7.906;2023-03-11T10:44:01;97525.00;;;8.10
20058;BMP180;10189;49.546;7.906;2023-03-11T10:46:29;97527.00;;;8.20
20058;BMP180;10189;49.546;7.906;2023-03-11T10:48:55;97515.00;;;8.60
20058;BMP180;10189;49.546;7.906;2023-03-11T10:51:26;97520.00;;;8.80
20058;BMP180;10189;49.546;7.906;2023-03-11T10:53:58;97530.00;;;8.20
20058;BMP180;10189;49.546;7.906;2023-03-11T10:56:34;97527.00;;;8.10
20058;BMP180;10189;49.546;7.906;2023-03-11T10:59:04;97545.00;;;8.10
20058;BMP180;10189;49.546;7.906;2023-03-11T11:01:31;97537.00;;;8.10
20058;BMP180;10189;49.546;7.906;2023-03-11T11:03:59;97537.00;;;7.80
20058;BMP180;10189;49.546;7.906;2023-03-11T11:06:35;97540.00;;;7.10
20058;BMP180;10189;49.546;7.906;2023-03-11T11:09:26;97552.00;;;6.80
20058;BMP180;10189;49.546;7.906;2023-03-11T11:12:15;97553.00;;;7.10
20058;BMP180;10189;49.546;7.906;2023-03-11T11:19:46;97535.00;;;7.70
20058;BMP180;10189;49.546;7.906;2023-03-11T11:22:21;97540.00;;;7.90
20058;BMP180;10189;49.546;7.906;2023-03-11T11:24:51;97541.00;;;8.00
20058;BMP180;10189;49.546;7.906;2023-03-11T11:27:25;97533.00;;;8.70
20058;BMP180;10189;49.546;7.906;2023-03-11T11:30:14;97528.00;;;9.10
20058;BMP180;10189;49.546;7.906;2023-03-11T11:32:40;97513.00;;;9.40
20058;BMP180;10189;49.546;7.906;2023-03-11T11:35:13;97515.00;;;8.60
20058;BMP180;10189;49.546;7.906;2023-03-11T11:37:48;97519.00;;;8.90
20058;BMP180;10189;49.546;7.906;2023-03-11T11:42:53;97525.00;;;8.90
20058;BMP180;10189;49.546;7.906;2023-03-11T11:48:36;97524.00;;;8.80
20058;BMP180;10189;49.546;7.906;2023-03-11T11:51:22;97530.00;;;8.20
20058;BMP180;10189;49.546;7.906;2023-03-11T11:56:32;97529.00;;;7.80
20058;BMP180;10189;49.546;7.906;2023-03-11T11:58:59;97525.00;;;7.80
20058;BMP180;10189;49.546;7.906;2023-03-11T12:02:03;97525.00;;;8.20
20058;BMP180;10189;49.546;7.906;2023-03-11T12:04:49;97522.00;;;8.30
20058;BMP180;10189;49.546;7.906;2023-03-11T12:19:22;97516.00;;;8.10
20058;BMP180;10189;49.546;7.906;2023-03-11T12:31:08;97533.00;;;7.80
20058;BMP180;10189;49.546;7.906;2023-03-11T12:33:58;97525.00;;;8.00
20058;BMP180;10189;49.546;7.906;2023-03-11T12:36:35;97523.00;;;8.10
20058;BMP180;10189;49.546;7.906;2023-03-11T12:39:18;97512.00;;;8.20
20058;BMP180;10189;49.546;7.906;2023-03-11T12:41:45;97510.00;;;8.10
20058;BMP180;10189;49.546;7.906;2023-03-11T12:44:28;97522.00;;;7.60
20058;BMP180;10189;49.546;7.906;2023-03-11T12:49:29;97527.00;;;7.20
20058;BMP180;10189;49.546;7.906;2023-03-11T12:52:19;97526.00;;;7.70
20058;BMP180;10189;49.546;7.906;2023-03-11T13:03:31;97531.00;;;8.80
20058;BMP180;10189;49.546;7.906;2023-03-11T13:08:49;97530.00;;;9.60
20058;BMP180;10189;49.546;7.906;2023-03-11T13:11:44;97523.00;;;9.60
20058;BMP180;10189;49.546;7.906;2023-03-11T13:16:42;97509.00;;;9.40
20058;BMP180;10189;49.546;7.906;2023-03-11T13:19:32;97492.00;;;9.60
20058;BMP180;10189;49.546;7.906;2023-03-11T13:22:00;97494.00;;;9.30
20058;BMP180;10189;49.546;7.906;2023-03-11T13:30:10;97486.00;;;9.30
20058;BMP180;10189;49.546;7.906;2023-03-11T13:35:49;97495.00;;;9.40
20058;BMP180;10189;49.546;7.906;2023-03-11T13:38:44;97510.00;;;9.50
20058;BMP180;10189;49.546;7.906;2023-03-11T13:41:23;97501.00;;;9.20
20058;BMP180;10189;49.546;7.906;2023-03-11T13:43:54;97513.00;;;9.40
20058;BMP180;10189;49.546;7.906;2023-03-11T13:46:30;97514.00;;;9.30
20058;BMP180;10189;49.546;7.906;2023-03-11T13:51:49;97514.00;;;9.30
20058;BMP180;10189;49.546;7.906;2023-03-11T13:57:01;97525.00;;;8.80
20058;BMP180;10189;49.546;7.906;2023-03-11T13:59:33;97513.00;;;8.90
20058;BMP180;10189;49.546;7.906;2023-03-11T14:02:18;97521.00;;;9.10
20058;BMP180;10189;49.546;7.906;2023-03-11T14:04:57;97524.00;;;9.10
20058;BMP180;10189;49.546;7.906;2023-03-11T14:09:51;97528.00;;;8.60
20058;BMP180;10189;49.546;7.906;2023-03-11T14:12:31;97528.00;;;8.70
20058;BMP180;10189;49.546;7.906;2023-03-11T14:15:06;97550.00;;;8.00
20058;BMP180;10189;49.546;7.906;2023-03-11T14:17:32;97560.00;;;8.40
20058;BMP180;10189;49.546;7.906;2023-03-11T14:20:15;97563.00;;;8.10
20058;BMP180;10189;49.546;7.906;2023-03-11T14:22:47;97557.00;;;7.90
20058;BMP180;10189;49.546;7.906;2023-03-11T14:25:25;97552.00;;;8.10
20058;BMP180;10189;49.546;7.906;2023-03-11T14:28:02;97553.00;;;8.20
20058;BMP180;10189;49.546;7.906;2023-03-11T14:30:32;97559.00;;;8.10
20058;BMP180;10189;49.546;7.906;2023-03-11T14:33:19;97561.00;;;8.10
20058;BMP180;10189;49.546;7.906;2023-03-11T14:35:55;97550.00;;;8.10
20058;BMP180;10189;49.546;7.906;2023-03-11T14:38:29;97544.00;;;8.30
20058;BMP180;10189;49.546;7.906;2023-03-11T14:41:01;97546.00;;;7.80
20058;BMP180;10189;49.546;7.906;2023-03-11T14:43:32;97552.00;;;7.70
20058;BMP180;10189;49.546;7.906;2023-03-11T14:46:01;97540.00;;;7.80
20058;BMP180;10189;49.546;7.906;2023-03-11T14:48:37;97543.00;;;8.00
20058;BMP180;10189;49.546;7.906;2023-03-11T14:51:16;97543.00;;;7.60
20058;BMP180;10189;49.546;7.906;2023-03-11T14:56:27;97548.00;;;7.60
20058;BMP180;10189;49.546;7.906;2023-03-11T14:59:27;97559.00;;;7.50
20058;BMP180;10189;49.546;7.906;2023-03-11T15:02:24;97553.00;;;7.60
20058;BMP180;10189;49.546;7.906;2023-03-11T15:04:49;97564.00;;;7.40
20058;BMP180;10189;49.546;7.906;2023-03-11T15:07:19;97558.00;;;7.30
20058;BMP180;10189;49.546;7.906;2023-03-11T15:09:46;97547.00;;;7.70
20058;BMP180;10189;49.546;7.906;2023-03-11T15:12:33;97564.00;;;7.90
20058;BMP180;10189;49.546;7.906;2023-03-11T15:14:59;97566.00;;;8.10
20058;BMP180;10189;49.546;7.906;2023-03-11T15:17:27;97560.00;;;7.90
20058;BMP180;10189;49.546;7.906;2023-03-11T15:19:57;97564.00;;;7.90
20058;BMP180;10189;49.546;7.906;2023-03-11T15:24:57;97563.00;;;7.70
20058;BMP180;10189;49.546;7.906;2023-03-11T15:29:55;97553.00;;;7.60
20058;BMP180;10189;49.546;7.906;2023-03-11T15:35:25;97551.00;;;7.60
20058;BMP180;10189;49.546;7.906;2023-03-11T15:38:23;97561.00;;;7.60
20058;BMP180;10189;49.546;7.906;2023-03-11T15:40:57;97548.00;;;7.60
20058;BMP180;10189;49.546;7.906;2023-03-11T15:43:47;97548.00;;;7.70
20058;BMP180;10189;49.546;7.906;2023-03-11T15:46:14;97559.00;;;7.60
20058;BMP180;10189;49.546;7.906;2023-03-11T15:48:41;97564.00;;;7.60
20058;BMP180;10189;49.546;7.906;2023-03-11T15:51:18;97568.00;;;7.60
20058;BMP180;10189;49.546;7.906;2023-03-11T15:53:44;97576.00;;;7.50
20058;BMP180;10189;49.546;7.906;2023-03-11T15:56:19;97575.00;;;7.70
20058;BMP180;10189;49.546;7.906;2023-03-11T15:58:47;97569.00;;;7.70
20058;BMP180;10189;49.546;7.906;2023-03-11T16:01:13;97587.00;;;7.60
20058;BMP180;10189;49.546;7.906;2023-03-11T16:03:38;97588.00;;;7.60
20058;BMP180;10189;49.546;7.906;2023-03-11T16:06:05;97587.00;;;7.40
20058;BMP180;10189;49.546;7.906;2023-03-11T16:08:31;97586.00;;;7.50
20058;BMP180;10189;49.546;7.906;2023-03-11T16:10:57;97593.00;;;7.30
20058;BMP180;10189;49.546;7.906;2023-03-11T16:13:23;97592.00;;;7.10
20058;BMP180;10189;49.546;7.906;2023-03-11T16:15:49;97607.00;;;7.00
20058;BMP180;10189;49.546;7.906;2023-03-11T16:18:15;97600.00;;;6.80
20058;BMP180;10189;49.546;7.906;2023-03-11T16:20:45;97600.00;;;6.60